Time;durP1;ratioP1;P1;durP2;ratioP2;P2;SDS_P1;SDS_P2;PMS_P1;PMS_P2;Temp;Humidity;BMP_temperature;BMP_pressure;BME280_temperature;BME280_humidity;BME280_pressure;Samples;Min_cycle;Max_cycle;Signal;HPM_P1;HPM_P2
2020/12/04 00:01:00;;;;;;;32.28;20.33;;;;;;;;;;3542956;40;20084;-94
2020/12/04 00:07:47;;;;;;;40.58;21.75;;;;;;;;;;3556038;33;20207;-94
2020/12/04 00:11:03;;;;;;;39.22;20.35;;;;;;;;;;3538906;40;20114;-94
2020/12/04 00:14:14;;;;;;;40.00;22.60;;;;;;;;;;3516698;33;20108;-94
2020/12/04 00:17:52;;;;;;;39.42;20.15;;;;;;;;;;3505277;41;20116;-94
2020/12/04 00:21:02;;;;;;;41.10;24.73;;;;;;;;;;3514623;41;20100;-94
2020/12/04 00:24:40;;;;;;;43.28;22.65;;;;;;;;;;3519204;33;20128;-94
2020/12/04 00:27:33;;;;;;;43.33;23.80;;;;;;;;;;3489911;41;20085;-93
2020/12/04 00:30:38;;;;;;;45.78;21.63;;;;;;;;;;3495070;41;20101;-93
2020/12/04 00:38:09;;;;;;;42.90;22.27;;;;;;;;;;3486872;41;20125;-93
2020/12/04 00:40:43;;;;;;;37.08;21.45;;;;;;;;;;3524458;33;20089;-93
2020/12/04 00:43:28;;;;;;;41.10;24.23;;;;;;;;;;3491641;33;20105;-94
2020/12/04 00:46:36;;;;;;;37.10;20.33;;;;;;;;;;3510841;40;20124;-93
2020/12/04 00:49:12;;;;;;;42.83;22.63;;;;;;;;;;3526020;33;20200;-93
2020/12/04 00:51:45;;;;;;;38.30;21.30;;;;;;;;;;3518331;33;20111;-93
2020/12/04 00:55:00;;;;;;;46.92;24.85;;;5.40;99.90;;;;;;3509519;33;20135;-93
2020/12/04 00:58:00;;;;;;;44.40;25.92;;;;;;;;;;3511555;40;20115;-93
2020/12/04 01:01:04;;;;;;;42.47;20.55;;;;;;;;;;3503484;40;20111;-93
2020/12/04 01:03:50;;;;;;;39.17;22.02;;;;;;;;;;3523917;33;20130;-92
2020/12/04 01:06:27;;;;;;;39.15;20.67;;;;;;;;;;3512837;33;20069;-92
2020/12/04 01:09:19;;;;;;;34.88;20.27;;;;;;;;;;3513166;41;20147;-93
2020/12/04 01:12:14;;;;;;;35.35;20.67;;;5.40;99.90;;;;;;3516443;33;20116;-93
2020/12/04 01:14:57;;;;;;;39.78;20.60;;;;;;;;;;3530851;35;20097;-94
2020/12/04 01:17:28;;;;;;;37.28;19.85;;;;;;;;;;3534304;33;20123;-93
2020/12/04 01:20:06;;;;;;;33.15;16.75;;;;;;;;;;3562090;33;20114;-94
2020/12/04 01:22:36;;;;;;;32.10;18.27;;;;;;;;;;3534859;33;20167;-93
2020/12/04 01:25:10;;;;;;;35.38;19.95;;;;;;;;;;3503149;33;20120;-94
2020/12/04 01:27:48;;;;;;;32.50;17.90;;;;;;;;;;3525737;33;20126;-94
2020/12/04 01:31:00;;;;;;;33.08;18.13;;;;;;;;;;3536972;33;20078;-93
2020/12/04 01:33:35;;;;;;;36.95;18.75;;;;;;;;;;3519303;40;20080;-93
2020/12/04 01:36:22;;;;;;;31.42;15.90;;;;;;;;;;3512595;33;20084;-93
2020/12/04 01:40:04;;;;;;;30.65;16.30;;;5.40;99.90;;;;;;3513360;33;20075;-92
2020/12/04 01:42:38;;;;;;;32.88;14.88;;;;;;;;;;3568605;33;20127;-93
2020/12/04 01:45:24;;;;;;;28.02;13.23;;;;;;;;;;3511807;33;20104;-93
2020/12/04 01:47:56;;;;;;;;;;;5.30;99.90;;;;;;3508218;33;20115;-91
2020/12/04 01:51:00;;;;;;;28.98;15.52;;;;;;;;;;3539495;33;20044;-94
2020/12/04 01:54:14;;;;;;;29.02;14.85;;;;;;;;;;3560966;33;20139;-94
2020/12/04 01:56:52;;;;;;;29.38;13.73;;;;;;;;;;3502518;33;20124;-94
2020/12/04 01:59:38;;;;;;;30.95;14.02;;;;;;;;;;3503206;33;20533;-94
2020/12/04 02:02:52;;;;;;;26.95;13.55;;;;;;;;;;3528959;33;20083;-93
2020/12/04 02:05:40;;;;;;;27.95;13.27;;;;;;;;;;3522237;33;20127;-94
2020/12/04 02:08:22;;;;;;;25.98;13.35;;;;;;;;;;3524418;33;20206;-93
2020/12/04 02:11:12;;;;;;;24.10;12.63;;;;;;;;;;3516109;40;20135;-94
2020/12/04 02:14:00;;;;;;;28.02;13.85;;;;;;;;;;3509469;33;20128;-93
2020/12/04 02:17:05;;;;;;;25.63;12.48;;;;;;;;;;3498137;41;20099;-93
2020/12/04 02:19:47;;;;;;;26.55;14.50;;;;;;;;;;3508700;33;20158;-94
2020/12/04 02:22:41;;;;;;;28.60;12.77;;;;;;;;;;3508347;41;20108;-94
2020/12/04 02:29:10;;;;;;;28.13;11.48;;;;;;;;;;3539028;32;20096;-93
2020/12/04 02:32:28;;;;;;;23.42;12.07;;;;;;;;;;3529072;40;20091;-95
2020/12/04 02:36:11;;;;;;;21.83;10.73;;;;;;;;;;3524096;35;20134;-94
2020/12/04 02:39:08;;;;;;;21.48;11.65;;;;;;;;;;3552874;40;20125;-94
2020/12/04 02:41:46;;;;;;;13.73;7.43;;;;;;;;;;3527245;40;20118;-94
2020/12/04 02:44:39;;;;;;;18.77;9.52;;;;;;;;;;3548555;40;20166;-94
2020/12/04 02:47:37;;;;;;;17.98;8.50;;;5.10;99.90;;;;;;3533522;40;20197;-94
2020/12/04 02:50:54;;;;;;;15.25;7.40;;;;;;;;;;3538414;40;20106;-94
2020/12/04 02:53:24;;;;;;;22.05;10.80;;;;;;;;;;3529028;33;20126;-94
2020/12/04 02:56:12;;;;;;;19.58;8.68;;;;;;;;;;3531819;33;20103;-93
2020/12/04 02:59:26;;;;;;;21.58;9.60;;;5.00;99.90;;;;;;3538214;40;20083;-93
2020/12/04 03:01:55;;;;;;;21.38;9.93;;;;;;;;;;3556194;40;20114;-93
2020/12/04 03:05:34;;;;;;;21.30;10.73;;;5.10;99.90;;;;;;3581027;33;20086;-94
2020/12/04 03:08:08;;;;;;;18.95;8.88;;;;;;;;;;3544641;33;20153;-94
2020/12/04 03:10:49;;;;;;;15.55;7.65;;;;;;;;;;3535516;33;20500;-94
2020/12/04 03:13:32;;;;;;;17.83;8.05;;;;;;;;;;3537536;40;20102;-94
2020/12/04 03:16:30;;;;;;;17.88;7.82;;;;;;;;;;3566423;32;20098;-95
2020/12/04 03:19:19;;;;;;;14.90;7.15;;;;;;;;;;3549339;40;20091;-94
2020/12/04 03:22:01;;;;;;;15.77;6.30;;;;;;;;;;3542957;33;20165;-93
2020/12/04 03:24:42;;;;;;;13.70;8.02;;;;;;;;;;3539780;33;20094;-94
2020/12/04 03:27:13;;;;;;;14.32;7.43;;;;;;;;;;3557766;33;20095;-94
2020/12/04 03:29:51;;;;;;;9.90;5.30;;;;;;;;;;3544617;40;20102;-94
2020/12/04 03:32:25;;;;;;;18.90;8.45;;;;;;;;;;3533732;40;20090;-94
2020/12/04 03:35:03;;;;;;;16.27;8.57;;;;;;;;;;3537077;40;20091;-94
2020/12/04 03:37:34;;;;;;;17.88;7.63;;;;;;;;;;3559642;33;20105;-93
2020/12/04 03:40:16;;;;;;;18.40;8.40;;;;;;;;;;3624561;32;20134;-95
2020/12/04 03:43:02;;;;;;;18.20;9.35;;;;;;;;;;3554118;40;20111;-94
2020/12/04 03:45:35;;;;;;;16.25;7.50;;;;;;;;;;3557707;32;20111;-94
2020/12/04 03:48:22;;;;;;;19.00;7.00;;;;;;;;;;3558329;33;20142;-93
2020/12/04 03:50:54;;;;;;;9.55;5.47;;;;;;;;;;3552224;40;20118;-94
2020/12/04 03:53:37;;;;;;;11.50;4.80;;;;;;;;;;3531613;33;20190;-94
2020/12/04 03:56:25;;;;;;;10.05;5.25;;;;;;;;;;3545952;33;20106;-94
2020/12/04 03:59:45;;;;;;;13.18;6.10;;;;;;;;;;3547809;40;20122;-92
2020/12/04 04:02:51;;;;;;;;;;;4.80;99.90;;;;;;3539076;33;20129;-93
2020/12/04 04:05:29;;;;;;;11.13;5.47;;;;;;;;;;3559242;32;20324;-94
2020/12/04 04:08:01;;;;;;;9.88;4.45;;;;;;;;;;3541562;33;20139;-93
2020/12/04 04:10:59;;;;;;;9.13;4.55;;;4.70;99.90;;;;;;3543375;40;20103;-93
2020/12/04 04:13:44;;;;;;;11.15;4.88;;;;;;;;;;3529723;33;20138;-93
2020/12/04 04:16:23;;;;;;;13.77;6.07;;;;;;;;;;3545985;33;20122;-95
2020/12/04 04:19:11;;;;;;;9.02;5.03;;;;;;;;;;3520548;40;20136;-93
2020/12/04 04:21:46;;;;;;;11.02;5.07;;;;;;;;;;3521032;33;20567;-94
2020/12/04 04:24:17;;;;;;;;;;;4.70;99.90;;;;;;3527216;33;20631;-94
2020/12/04 04:26:50;;;;;;;10.20;5.82;;;;;;;;;;3530732;40;20004;-94
2020/12/04 04:29:34;;;;;;;11.77;4.90;;;;;;;;;;3511285;33;20115;-93
2020/12/04 04:32:08;;;;;;;12.30;6.45;;;;;;;;;;3529885;33;20107;-93
2020/12/04 04:35:22;;;;;;;9.85;4.85;;;;;;;;;;3551087;35;20087;-94
2020/12/04 04:37:53;;;;;;;13.60;5.95;;;;;;;;;;3517792;40;20565;-93
2020/12/04 04:40:45;;;;;;;14.80;7.18;;;;;;;;;;3531122;33;20146;-94
2020/12/04 04:43:22;;;;;;;15.98;6.65;;;;;;;;;;3525802;33;20115;-93
2020/12/04 04:45:52;;;;;;;14.75;7.60;;;;;;;;;;3536512;33;20103;-94
2020/12/04 04:48:54;;;;;;;17.75;7.32;;;;;;;;;;3540445;33;20480;-93
2020/12/04 04:51:28;;;;;;;;;;;4.40;99.90;;;;;;3553003;33;20118;-93
2020/12/04 04:54:05;;;;;;;18.97;9.40;;;;;;;;;;3527764;33;20006;-95
2020/12/04 04:56:47;;;;;;;16.38;9.40;;;4.40;99.90;;;;;;3515990;40;20214;-94
2020/12/04 04:59:21;;;;;;;18.17;6.90;;;;;;;;;;3523943;40;20215;-94
2020/12/04 05:01:52;;;;;;;18.48;8.07;;;;;;;;;;3525181;33;20717;-93
2020/12/04 05:04:21;;;;;;;14.82;7.57;;;;;;;;;;3549423;33;20130;-94
2020/12/04 05:06:50;;;;;;;15.80;8.70;;;;;;;;;;3535592;33;20126;-94
2020/12/04 05:09:42;;;;;;;15.88;7.70;;;;;;;;;;3544049;33;20111;-95
2020/12/04 05:12:13;;;;;;;18.75;7.70;;;;;;;;;;3523928;40;20103;-94
2020/12/04 05:14:51;;;;;;;15.80;8.27;;;;;;;;;;3549987;33;20182;-94
2020/12/04 05:17:35;;;;;;;23.17;11.45;;;;;;;;;;3520773;40;20537;-95
2020/12/04 05:20:23;;;;;;;24.40;11.23;;;;;;;;;;3558634;33;20122;-93
2020/12/04 05:23:12;;;;;;;23.05;10.48;;;;;;;;;;3555700;32;20099;-94
2020/12/04 05:25:49;;;;;;;26.17;13.32;;;;;;;;;;3527973;40;20103;-95
2020/12/04 05:28:35;;;;;;;33.15;14.05;;;;;;;;;;3543135;40;20071;-94
2020/12/04 05:31:28;;;;;;;27.65;13.10;;;;;;;;;;3533001;40;20115;-95
2020/12/04 05:34:23;;;;;;;36.47;17.05;;;;;;;;;;3516119;40;20142;-93
2020/12/04 05:37:05;;;;;;;29.27;11.13;;;4.30;99.90;;;;;;3535981;33;20094;-94
2020/12/04 05:39:49;;;;;;;29.00;12.70;;;;;;;;;;3574198;33;20127;-94
2020/12/04 05:42:41;;;;;;;29.50;13.45;;;;;;;;;;3529103;40;20508;-95
2020/12/04 05:45:22;;;;;;;33.58;16.17;;;;;;;;;;3529272;40;20127;-94
2020/12/04 05:47:53;;;;;;;29.98;15.30;;;;;;;;;;3519473;40;20087;-94
2020/12/04 05:50:36;;;;;;;26.90;11.45;;;;;;;;;;3513614;33;20493;-95
2020/12/04 05:53:21;;;;;;;26.52;14.30;;;;;;;;;;3535212;33;20572;-96
2020/12/04 05:56:03;;;;;;;31.52;15.65;;;;;;;;;;3740661;27;20616;-94
2020/12/04 05:59:07;;;;;;;29.63;14.43;;;;;;;;;;3946579;27;20156;-93
2020/12/04 06:02:15;;;;;;;31.05;13.25;;;4.30;99.90;;;;;;3775459;33;21598;-95
2020/12/04 06:05:34;;;;;;;24.55;12.27;;;;;;;;;;3928825;35;20128;-95
2020/12/04 06:18:02;;;;;;;28.88;12.80;;;;;;;;;;3585237;27;20263;-94
2020/12/04 07:46:32;;;;;;;23.90;12.93;;;;;;;;;;3749712;28;20532;-91
2020/12/04 07:49:23;;;;;;;24.25;11.93;;;;;;;;;;3474266;41;20113;-93
2020/12/04 08:08:13;;;;;;;23.75;10.98;;;;;;;;;;3711155;28;20086;-88
2020/12/04 08:27:47;;;;;;;25.75;11.32;;;;;;;;;;3899023;35;20030;-94
2020/12/04 08:34:06;;;;;;;18.92;8.70;;;;;;;;;;3434832;34;20107;-94
2020/12/04 08:37:07;;;;;;;21.20;10.00;;;4.10;99.90;;;;;;3442628;41;20123;-95
2020/12/04 08:40:30;;;;;;;23.63;9.60;;;;;;;;;;3569842;36;20111;-94
2020/12/04 08:43:34;;;;;;;24.35;12.20;;;;;;;;;;3530989;33;20124;-94
2020/12/04 08:50:36;;;;;;;22.38;9.82;;;;;;;;;;3507468;33;20132;-94
2020/12/04 08:53:41;;;;;;;21.65;8.95;;;;;;;;;;3719052;33;20509;-94
2020/12/04 08:56:56;;;;;;;15.13;7.13;;;;;;;;;;3501949;41;20128;-94
2020/12/04 09:01:03;;;;;;;18.77;8.27;;;;;;;;;;3480036;33;20125;-95
2020/12/04 09:04:23;;;;;;;18.23;8.98;;;4.30;99.90;;;;;;3458444;41;20641;-94
2020/12/04 09:07:22;;;;;;;21.65;8.55;;;;;;;;;;3468869;41;20125;-94
2020/12/04 09:10:37;;;;;;;18.50;6.47;;;;;;;;;;3475242;34;20129;-94
2020/12/04 09:13:32;;;;;;;11.85;6.00;;;;;;;;;;3461200;41;20090;-94
2020/12/04 09:16:57;;;;;;;18.15;8.05;;;;;;;;;;3500281;34;20149;-92
2020/12/04 09:23:20;;;;;;;15.08;8.76;;;4.30;99.90;;;;;;3962410;28;20119;-87
2020/12/04 09:26:16;;;;;;;14.82;7.65;;;;;;;;;;3872518;28;20307;-93
2020/12/04 09:36:18;;;;;;;14.13;6.40;;;;;;;;;;3378906;31;20081;-92
2020/12/04 09:45:31;;;;;;;18.15;7.70;;;;;;;;;;1940938;31;20101;-92
2020/12/04 10:09:30;;;;;;;7.80;4.45;;;5.00;99.90;;;;;;3476280;41;20088;-93
2020/12/04 10:12:35;;;;;;;10.95;4.40;;;;;;;;;;3660931;33;20129;-95
2020/12/04 10:15:45;;;;;;;13.23;5.15;;;;;;;;;;3452867;34;20090;-93
2020/12/04 10:19:24;;;;;;;6.13;3.47;;;;;;;;;;3483087;33;20094;-93
2020/12/04 10:22:19;;;;;;;9.05;4.57;;;;;;;;;;3482543;33;20137;-94
2020/12/04 10:25:42;;;;;;;10.98;5.55;;;;;;;;;;3483469;41;20120;-94
2020/12/04 10:29:33;;;;;;;9.13;3.75;;;;;;;;;;3494498;33;20089;-95
2020/12/04 10:32:21;;;;;;;3.83;2.63;;;4.90;99.90;;;;;;3495864;33;20077;-96
2020/12/04 10:35:32;;;;;;;6.45;3.78;;;;;;;;;;3470871;41;20160;-94
2020/12/04 10:38:43;;;;;;;7.47;4.25;;;;;;;;;;3496003;33;20120;-94
2020/12/04 10:41:47;;;;;;;5.53;3.10;;;;;;;;;;3458484;41;20086;-95
2020/12/04 10:44:49;;;;;;;3.63;3.33;;;;;;;;;;3501229;33;20519;-94
2020/12/04 10:47:43;;;;;;;3.85;3.45;;;;;;;;;;3593661;33;20150;-92
2020/12/04 10:50:31;;;;;;;9.63;3.70;;;;;;;;;;3541410;33;20062;-94
2020/12/04 10:53:39;;;;;;;6.53;3.33;;;;;;;;;;3478398;41;20165;-94
2020/12/04 11:00:52;;;;;;;11.40;3.47;;;;;;;;;;3472262;33;20141;-94
2020/12/04 11:07:06;;;;;;;6.75;4.30;;;;;;;;;;3472633;33;20121;-95
2020/12/04 11:10:26;;;;;;;9.07;4.25;;;;;;;;;;3468936;41;20073;-95
2020/12/04 11:26:27;;;;;;;5.35;3.13;;;;;;;;;;3499690;41;20132;-93
2020/12/04 11:29:26;;;;;;;4.57;3.15;;;;;;;;;;3483182;33;20088;-94
2020/12/04 11:32:13;;;;;;;6.75;3.95;;;;;;;;;;3454920;41;20081;-94
2020/12/04 11:35:11;;;;;;;5.55;3.25;;;;;;;;;;3463347;34;20660;-94
2020/12/04 11:48:07;;;;;;;4.85;3.20;;;;;;;;;;3489720;41;20540;-95
2020/12/04 11:54:03;;;;;;;6.03;3.13;;;;;;;;;;3941854;27;21167;-94
2020/12/04 11:57:41;;;;;;;7.95;3.28;;;;;;;;;;3488659;33;20113;-93
2020/12/04 12:01:46;;;;;;;7.25;4.03;;;4.80;99.90;;;;;;3490478;33;20176;-94
2020/12/04 12:04:32;;;;;;;7.65;3.63;;;;;;;;;;3613407;33;21152;-92
2020/12/04 12:07:37;;;;;;;8.07;3.55;;;;;;;;;;3517850;35;20091;-92
2020/12/04 12:10:18;;;;;;;8.52;4.32;;;;;;;;;;3485370;40;20097;-92
2020/12/04 12:13:00;;;;;;;5.05;3.05;;;;;;;;;;3490308;41;20136;-93
2020/12/04 12:16:12;;;;;;;7.85;4.25;;;;;;;;;;3497117;33;20156;-93
2020/12/04 12:19:20;;;;;;;6.75;3.90;;;;;;;;;;3502600;33;20092;-92
2020/12/04 12:22:23;;;;;;;7.40;4.27;;;;;;;;;;3489161;41;20116;-95
2020/12/04 12:25:15;;;;;;;5.38;3.53;;;;;;;;;;3508314;33;20080;-94
2020/12/04 12:27:47;;;;;;;3.97;2.80;;;;;;;;;;3492875;33;20083;-93
2020/12/04 12:30:25;;;;;;;8.57;3.60;;;;;;;;;;3500824;33;20127;-94
2020/12/04 12:33:31;;;;;;;8.27;2.83;;;;;;;;;;3489693;41;20120;-94
2020/12/04 12:36:10;;;;;;;5.70;2.88;;;;;;;;;;3486902;41;20123;-94
2020/12/04 12:39:04;;;;;;;8.85;3.72;;;;;;;;;;3494124;41;20140;-93
2020/12/04 12:45:38;;;;;;;4.43;2.80;;;;;;;;;;3515938;33;20108;-94
2020/12/04 12:48:27;;;;;;;6.32;3.45;;;;;;;;;;3496749;41;20123;-94
2020/12/04 12:51:14;;;;;;;5.85;2.38;;;;;;;;;;3484113;41;20140;-95
2020/12/04 12:54:14;;;;;;;3.33;2.40;;;;;;;;;;3503884;33;20101;-93
2020/12/04 12:57:00;;;;;;;5.13;2.60;;;;;;;;;;3480839;34;20140;-92
2020/12/04 12:59:38;;;;;;;4.18;2.72;;;;;;;;;;3506007;33;20116;-94
2020/12/04 13:02:25;;;;;;;3.38;2.40;;;;;;;;;;3491813;34;20152;-92
2020/12/04 13:05:35;;;;;;;5.03;2.50;;;;;;;;;;3476317;41;20120;-93
2020/12/04 13:08:21;;;;;;;2.80;2.13;;;;;;;;;;3476374;33;20124;-94
2020/12/04 13:11:04;;;;;;;4.70;2.45;;;;;;;;;;3506611;33;20108;-92
2020/12/04 13:13:41;;;;;;;5.15;2.88;;;;;;;;;;3472784;33;20128;-94
2020/12/04 13:16:43;;;;;;;4.22;2.78;;;;;;;;;;3480156;33;20123;-94
2020/12/04 13:19:30;;;;;;;7.78;3.30;;;;;;;;;;3481423;41;20133;-94
2020/12/04 13:22:23;;;;;;;4.78;3.40;;;5.90;99.90;;;;;;3471937;41;20124;-95
2020/12/04 13:25:33;;;;;;;9.77;2.53;;;;;;;;;;3486531;35;20604;-94
2020/12/04 13:28:31;;;;;;;3.70;2.20;;;;;;;;;;3494925;33;20125;-93
2020/12/04 13:31:38;;;;;;;9.30;3.22;;;;;;;;;;3483996;35;20109;-94
2020/12/04 13:35:08;;;;;;;4.30;1.92;;;5.80;99.90;;;;;;3510154;33;20062;-95
2020/12/04 13:38:30;;;;;;;2.75;1.92;;;6.10;99.90;;;;;;3481709;41;20108;-93
2020/12/04 13:51:03;;;;;;;5.28;1.88;;;;;;;;;;3552550;35;20791;-93
2020/12/04 14:00:29;;;;;;;3.95;3.65;;;;;;;;;;3477010;41;20108;-95
2020/12/04 14:03:56;;;;;;;3.25;1.65;;;5.90;99.90;;;;;;3831468;28;20104;-95
2020/12/04 14:10:18;;;;;;;3.03;1.77;;;;;;;;;;3795157;27;20105;-94
2020/12/04 14:13:23;;;;;;;5.60;1.55;;;;;;;;;;3497946;34;20124;-96
2020/12/04 14:16:22;;;;;;;3.80;2.45;;;;;;;;;;3501731;34;20100;-95
2020/12/04 14:25:33;;;;;;;2.72;2.03;;;;;;;;;;3509824;33;20069;-95
2020/12/04 14:28:53;;;;;;;2.40;2.22;;;5.90;99.90;;;;;;3490956;33;20080;-95
2020/12/04 14:32:16;;;;;;;;;;;5.80;99.90;;;;;;3517543;33;20072;-92
2020/12/04 14:44:32;;;;;;;3.28;1.83;;;;;;;;;;3619293;35;20384;-92
2020/12/04 14:48:00;;;;;;;2.40;1.90;;;5.60;99.90;;;;;;3596439;28;20142;-93
2020/12/04 14:54:30;;;;;;;3.17;2.60;;;;;;;;;;3756138;35;20145;-95
2020/12/04 14:58:10;;;;;;;2.63;1.92;;;;;;;;;;3492846;41;20105;-95
2020/12/04 15:20:25;;;;;;;3.05;2.58;;;;;;;;;;2379429;31;20148;-96
2020/12/04 15:24:21;;;;;;;4.63;1.83;;;5.20;99.90;;;;;;3493178;41;20116;-95
2020/12/04 15:27:32;;;;;;;11.52;2.47;;;;;;;;;;3493955;41;20139;-94
2020/12/04 15:30:08;;;;;;;3.03;2.33;;;;;;;;;;3492163;41;20113;-94
2020/12/04 15:32:50;;;;;;;6.72;2.00;;;;;;;;;;3486476;33;20122;-94
2020/12/04 15:35:56;;;;;;;8.65;2.33;;;;;;;;;;3490938;33;20137;-95
2020/12/04 15:38:56;;;;;;;2.85;1.73;;;;;;;;;;3479120;41;20072;-95
2020/12/04 15:45:33;;;;;;;3.08;2.15;;;;;;;;;;3627018;35;22676;-94
2020/12/04 15:52:02;;;;;;;5.16;2.22;;;4.90;99.90;;;;;;3792457;31;20183;31
2020/12/04 16:01:41;;;;;;;;;;;5.00;99.90;;;;;;3916333;35;20119;31
2020/12/04 16:25:38;;;;;;;4.95;3.03;;;;;;;;;;3498703;33;20120;-94
2020/12/04 16:28:39;;;;;;;7.90;2.42;;;;;;;;;;3503201;33;20140;-93
2020/12/04 16:31:26;;;;;;;5.22;3.35;;;;;;;;;;3488693;33;20136;-92
2020/12/04 16:34:21;;;;;;;13.55;2.50;;;;;;;;;;3491065;41;20685;-91
2020/12/04 16:37:12;;;;;;;3.75;3.25;;;;;;;;;;3474361;34;20140;-92
2020/12/04 16:40:06;;;;;;;7.43;3.05;;;;;;;;;;3474478;41;20135;-94
2020/12/04 16:42:41;;;;;;;8.57;3.10;;;;;;;;;;3477941;33;20100;-95
2020/12/04 16:45:39;;;;;;;9.82;2.63;;;4.90;99.90;;;;;;3469706;41;20104;-93
2020/12/04 16:48:46;;;;;;;4.85;2.95;;;;;;;;;;3488700;33;20128;-93
2020/12/04 16:51:34;;;;;;;14.10;5.45;;;;;;;;;;3523717;33;20203;-93
2020/12/04 16:54:14;;;;;;;7.55;3.00;;;;;;;;;;3473869;33;20117;-94
2020/12/04 16:56:58;;;;;;;9.43;2.80;;;;;;;;;;3470676;33;20137;-92
2020/12/04 16:59:33;;;;;;;6.80;2.35;;;;;;;;;;3490290;41;20119;-93
2020/12/04 17:02:02;;;;;;;12.35;3.10;;;;;;;;;;3475931;33;20088;-94
2020/12/04 17:04:46;;;;;;;8.43;2.78;;;;;;;;;;3476189;33;20196;-93
2020/12/04 17:07:33;;;;;;;5.90;2.33;;;;;;;;;;3489737;41;20147;-93
2020/12/04 17:10:34;;;;;;;7.43;3.80;;;4.80;99.90;;;;;;3476411;33;20149;-91
2020/12/04 17:13:10;;;;;;;12.93;2.53;;;;;;;;;;3506060;33;20116;-94
2020/12/04 17:15:47;;;;;;;7.50;3.22;;;;;;;;;;3479601;34;20117;-94
2020/12/04 17:21:44;;;;;;;7.57;2.47;;;;;;;;;;3518808;33;20160;-92
2020/12/04 17:24:19;;;;;;;7.15;2.55;;;;;;;;;;3485662;41;20092;-93
2020/12/04 17:26:51;;;;;;;5.70;2.90;;;;;;;;;;3482527;41;20101;-92
2020/12/04 17:29:47;;;;;;;9.05;2.88;;;;;;;;;;3503340;41;20108;-91
2020/12/04 17:32:54;;;;;;;13.90;3.80;;;4.80;99.90;;;;;;3480233;33;20228;-94
2020/12/04 17:35:45;;;;;;;4.78;2.55;;;;;;;;;;3498498;41;20135;-93
2020/12/04 17:38:45;;;;;;;14.45;3.25;;;;;;;;;;3487510;41;20120;-92
2020/12/04 17:41:55;;;;;;;;;;;;;;;;;;;;;
2020/12/04 17:45:40;;;;;;;8.65;3.40;;;;;;;;;;3474180;41;20124;-92
2020/12/04 17:48:37;;;;;;;6.13;3.20;;;;;;;;;;3463416;41;20137;-94
2020/12/04 17:51:29;;;;;;;3.47;2.80;;;;;;;;;;3489573;34;20136;-94
2020/12/04 17:54:28;;;;;;;9.10;3.20;;;;;;;;;;3497134;41;20100;-94
2020/12/04 17:57:16;;;;;;;5.30;2.08;;;;;;;;;;3488052;33;20152;-94
2020/12/04 18:00:28;;;;;;;6.18;3.33;;;;;;;;;;3477225;41;20115;-92
2020/12/04 18:03:05;;;;;;;7.80;3.05;;;;;;;;;;3469488;41;20625;-93
2020/12/04 18:05:52;;;;;;;7.50;4.05;;;;;;;;;;3506646;33;20108;-90
2020/12/04 18:08:26;;;;;;;7.13;3.05;;;;;;;;;;3469514;41;20426;-94
2020/12/04 18:10:58;;;;;;;16.25;3.33;;;;;;;;;;3472739;41;21235;-92
2020/12/04 18:13:35;;;;;;;15.57;5.45;;;;;;;;;;3477584;33;20137;-94
2020/12/04 18:16:38;;;;;;;11.05;3.35;;;;;;;;;;3470300;41;20101;-93
2020/12/04 18:27:40;;;;;;;7.03;2.92;;;;;;;;;;2553236;31;20400;-93
2020/12/04 18:30:51;;;;;;;7.97;3.05;;;;;;;;;;3488122;41;20133;-94
2020/12/04 18:36:52;;;;;;;9.82;5.82;;;;;;;;;;3503161;41;20584;-93
2020/12/04 18:39:27;;;;;;;7.25;3.67;;;;;;;;;;3502097;33;20173;-94
2020/12/04 18:42:14;;;;;;;11.02;3.60;;;;;;;;;;3490473;41;20108;-94
2020/12/04 18:45:39;;;;;;;7.63;2.85;;;4.80;99.90;;;;;;3500000;41;20107;-94
2020/12/04 19:05:30;;;;;;;7.85;3.33;;;;;;;;;;3541071;33;20073;-95
2020/12/04 19:28:06;;;;;;;17.70;5.15;;;;;;;;;;3728022;35;20163;-93
2020/12/04 19:30:41;;;;;;;14.00;5.57;;;;;;;;;;3470176;41;20113;-93
2020/12/04 19:33:31;;;;;;;13.57;4.32;;;;;;;;;;3630212;35;20131;-94
2020/12/04 19:36:29;;;;;;;13.25;5.80;;;;;;;;;;3497804;33;20073;-92
2020/12/04 19:40:19;;;;;;;12.18;4.78;;;;;;;;;;3494933;33;20089;-92
2020/12/04 19:44:41;;;;;;;18.73;5.07;;;;;;;;;;3456292;34;20709;-91
2020/12/04 19:47:43;;;;;;;7.65;3.97;;;;;;;;;;3487201;41;20089;-91
2020/12/04 19:50:37;;;;;;;14.38;4.38;;;;;;;;;;3485332;33;20104;-92
2020/12/04 19:53:33;;;;;;;15.93;4.10;;;;;;;;;;3489661;41;20123;-91
2020/12/04 19:56:33;;;;;;;21.92;5.57;;;;;;;;;;3484517;41;20125;-90
2020/12/04 19:59:54;;;;;;;11.00;6.00;;;4.40;99.90;;;;;;3487913;41;20137;-91
2020/12/04 20:02:45;;;;;;;18.08;6.32;;;;;;;;;;3506984;33;20089;-92
2020/12/04 20:05:45;;;;;;;13.23;4.55;;;;;;;;;;3493866;33;20113;-91
2020/12/04 20:09:01;;;;;;;16.85;5.85;;;;;;;;;;3482082;41;20120;-91
2020/12/04 20:11:51;;;;;;;22.88;6.65;;;;;;;;;;3492301;33;20104;-91
2020/12/04 20:14:55;;;;;;;16.05;5.03;;;;;;;;;;3499661;33;20136;-92
2020/12/04 20:17:55;;;;;;;13.80;5.03;;;;;;;;;;3502961;33;20498;-92
2020/12/04 20:20:55;;;;;;;9.63;4.95;;;;;;;;;;3493552;41;20150;-92
2020/12/04 20:24:22;;;;;;;17.15;5.78;;;;;;;;;;3491432;41;20113;-91
2020/12/04 20:27:57;;;;;;;15.32;6.50;;;;;;;;;;3558661;33;20080;-92
2020/12/04 20:31:26;;;;;;;13.75;6.57;;;;;;;;;;3500927;33;20124;-91
2020/12/04 20:34:14;;;;;;;15.85;6.10;;;;;;;;;;3498975;33;20156;-92
2020/12/04 20:37:37;;;;;;;17.33;6.28;;;;;;;;;;3484101;41;20108;-93
2020/12/04 20:40:40;;;;;;;14.82;4.85;;;;;;;;;;3478191;41;20112;-92
2020/12/04 20:43:28;;;;;;;12.57;4.55;;;;;;;;;;3486743;41;20136;-90
2020/12/04 20:46:20;;;;;;;20.77;7.00;;;;;;;;;;3470515;41;20120;-91
2020/12/04 20:49:29;;;;;;;19.08;5.38;;;;;;;;;;3479698;41;20064;-91
2020/12/04 20:52:17;;;;;;;12.70;4.97;;;;;;;;;;3471983;41;20125;-91
2020/12/04 20:55:12;;;;;;;19.83;5.65;;;;;;;;;;3481151;41;20085;-91
2020/12/04 20:58:29;;;;;;;17.48;6.82;;;;;;;;;;3480354;41;20112;-91
2020/12/04 21:01:09;;;;;;;22.08;5.72;;;;;;;;;;3489524;33;20124;-92
2020/12/04 21:04:03;;;;;;;15.38;5.53;;;;;;;;;;3474372;33;20128;-93
2020/12/04 21:06:49;;;;;;;14.88;4.40;;;;;;;;;;3475354;41;20105;-94
2020/12/04 21:09:35;;;;;;;30.08;5.72;;;;;;;;;;3483797;41;20803;-92
2020/12/04 21:12:21;;;;;;;7.55;4.82;;;;;;;;;;3495651;33;20144;-92
2020/12/04 21:14:55;;;;;;;8.52;4.95;;;;;;;;;;3475800;33;20101;-94
2020/12/04 21:17:34;;;;;;;20.00;4.80;;;;;;;;;;3524152;33;20127;-93
2020/12/04 21:20:22;;;;;;;11.30;5.32;;;;;;;;;;3481355;33;20156;-93
2020/12/04 21:23:21;;;;;;;13.95;4.20;;;;;;;;;;3496100;35;20129;-92
2020/12/04 21:26:34;;;;;;;15.68;4.43;;;;;;;;;;3501305;33;20093;-93
2020/12/04 21:29:46;;;;;;;9.55;6.68;;;;;;;;;;3468457;34;20093;-92
2020/12/04 21:32:39;;;;;;;11.57;3.90;;;;;;;;;;3473740;33;20243;-93
2020/12/04 21:35:22;;;;;;;14.25;4.78;;;;;;;;;;3477426;41;20117;-90
2020/12/04 21:38:02;;;;;;;11.77;4.65;;;;;;;;;;3476954;33;20105;-93
2020/12/04 21:44:32;;;;;;;9.80;4.35;;;;;;;;;;3474955;41;20275;-91
2020/12/04 21:47:18;;;;;;;10.57;3.75;;;;;;;;;;3489385;33;20112;-92
2020/12/04 21:50:01;;;;;;;9.98;4.13;;;;;;;;;;3487388;33;20679;-91
2020/12/04 21:52:31;;;;;;;15.98;5.30;;;;;;;;;;3469215;33;20533;-93
2020/12/04 21:55:15;;;;;;;11.98;4.85;;;;;;;;;;3483326;41;20101;-92
2020/12/04 21:57:48;;;;;;;21.83;6.45;;;;;;;;;;3468988;41;20114;-92
2020/12/04 22:00:43;;;;;;;15.95;4.97;;;3.20;99.90;;;;;;3472186;33;20124;-92
2020/12/04 22:03:19;;;;;;;13.70;3.95;;;;;;;;;;3474286;33;20132;-91
2020/12/04 22:05:51;;;;;;;12.50;4.68;;;;;;;;;;3461805;34;20120;-93
2020/12/04 22:08:29;;;;;;;10.13;4.43;;;;;;;;;;3478930;33;20128;-93
2020/12/04 22:11:24;;;;;;;15.27;5.18;;;;;;;;;;3486114;33;20102;-93
2020/12/04 22:14:09;;;;;;;14.65;5.47;;;;;;;;;;3485287;33;20097;-91
2020/12/04 22:16:40;;;;;;;18.20;4.65;;;;;;;;;;3481934;33;20124;-93
2020/12/04 22:19:09;;;;;;;8.90;4.50;;;;;;;;;;3489022;33;20120;-91
2020/12/04 22:21:39;;;;;;;9.77;4.82;;;;;;;;;;3482863;41;20121;-90
2020/12/04 22:24:10;;;;;;;12.88;5.22;;;;;;;;;;3486313;41;20135;-93
2020/12/04 22:26:43;;;;;;;11.77;4.35;;;;;;;;;;3479525;41;20131;-93
2020/12/04 22:29:16;;;;;;;10.35;5.72;;;;;;;;;;3487940;33;20129;-92
2020/12/04 22:32:10;;;;;;;8.00;4.68;;;;;;;;;;3496588;33;20101;-92
2020/12/04 22:34:42;;;;;;;18.38;4.88;;;;;;;;;;3485375;33;20136;-92
2020/12/04 22:37:25;;;;;;;8.30;4.45;;;;;;;;;;3485698;33;20109;-92
2020/12/04 22:40:19;;;;;;;9.18;4.50;;;;;;;;;;3530026;33;20115;-91
2020/12/04 22:43:33;;;;;;;7.70;3.75;;;2.80;99.90;;;;;;3539720;33;20078;-93
2020/12/04 22:46:24;;;;;;;10.23;4.45;;;;;;;;;;3515809;33;20107;-91
2020/12/04 22:48:58;;;;;;;9.02;4.25;;;;;;;;;;3503031;41;20124;-92
2020/12/04 22:51:31;;;;;;;12.23;3.78;;;;;;;;;;3498270;33;20138;-91
2020/12/04 22:54:27;;;;;;;7.25;4.38;;;;;;;;;;3500164;33;20135;-92
2020/12/04 22:57:00;;;;;;;8.57;3.92;;;;;;;;;;3502593;41;20132;-92
2020/12/04 22:59:32;;;;;;;10.88;4.22;;;2.80;99.90;;;;;;3494208;41;20135;-92
2020/12/04 23:02:20;;;;;;;26.90;5.57;;;;;;;;;;3509011;33;20120;-92
2020/12/04 23:04:59;;;;;;;10.68;4.90;;;;;;;;;;3503746;33;20112;-90
2020/12/04 23:07:38;;;;;;;18.27;5.03;;;;;;;;;;3499384;33;20116;-92
2020/12/04 23:10:23;;;;;;;11.63;4.95;;;;;;;;;;3525514;33;20120;-91